createdAt,value
2023-02-12T00:01:56.605Z,102288.66
2023-02-12T00:04:25.366Z,102290.81
2023-02-12T00:06:53.694Z,102291.19
2023-02-12T00:09:23.777Z,102295.09
2023-02-12T00:11:52.634Z,102293.25
2023-02-12T00:14:20.824Z,102291.41
2023-02-12T00:16:52.408Z,102290.25
2023-02-12T00:19:24.850Z,102289.28
2023-02-12T00:21:54.158Z,102294.00
2023-02-12T00:24:22.189Z,102295.72
2023-02-12T00:26:51.178Z,102293.88
2023-02-12T00:29:19.246Z,102300.25
2023-02-12T00:31:49.864Z,102306.78
2023-02-12T00:34:20.079Z,102310.34
2023-02-12T00:36:51.619Z,102303.16
2023-02-12T00:39:23.441Z,102311.22
2023-02-12T00:41:53.226Z,102301.31
2023-02-12T00:44:23.294Z,102314.88
2023-02-12T00:46:53.854Z,102306.00
2023-02-12T00:49:23.010Z,102308.59
2023-02-12T00:51:52.586Z,102307.97
2023-02-12T00:54:21.311Z,102299.69
2023-02-12T00:56:51.233Z,102300.47
2023-02-12T00:59:19.400Z,102303.16
2023-02-12T01:01:49.917Z,102308.69
2023-02-12T01:04:18.359Z,102310.22
2023-02-12T01:06:46.613Z,102299.56
2023-02-12T01:09:16.647Z,102304.09
2023-02-12T01:11:47.351Z,102303.91
2023-02-12T01:14:15.642Z,102305.53
2023-02-12T01:16:43.798Z,102298.72
2023-02-12T01:19:14.471Z,102293.13
2023-02-12T01:21:43.600Z,102301.94
2023-02-12T01:24:12.147Z,102291.19
2023-02-12T01:26:41.686Z,102288.19
2023-02-12T01:29:09.973Z,102284.97
2023-02-12T01:31:39.068Z,102285.81
2023-02-12T01:34:08.155Z,102280.44
2023-02-12T01:36:36.638Z,102270.78
2023-02-12T01:39:04.917Z,102275.00
2023-02-12T01:41:34.763Z,102275.72
2023-02-12T01:44:21.217Z,102271.22
2023-02-12T01:46:50.480Z,102268.41
2023-02-12T01:49:22.616Z,102270.16
2023-02-12T01:51:52.827Z,102264.88
2023-02-12T01:54:22.739Z,102261.31
2023-02-12T01:56:51.124Z,102268.41
2023-02-12T01:59:21.533Z,102264.97
2023-02-12T02:01:49.795Z,102264.97
2023-02-12T02:04:21.208Z,102267.56
2023-02-12T02:06:51.756Z,102252.28
2023-02-12T02:09:20.690Z,102249.47
2023-02-12T02:12:20.607Z,102257.66
2023-02-12T02:14:51.882Z,102258.75
2023-02-12T02:17:34.351Z,102265.81
2023-02-12T02:20:20.366Z,102261.44
2023-02-12T02:22:52.937Z,102264.13
2023-02-12T02:25:35.184Z,102254.97
2023-02-12T02:28:08.041Z,102256.81
2023-02-12T02:30:40.603Z,102255.06
2023-02-12T02:33:14.515Z,102257.00
2023-02-12T02:35:47.827Z,102257.00
2023-02-12T02:38:22.653Z,102264.13
2023-02-12T02:40:53.123Z,102260.44
2023-02-12T02:43:23.178Z,102263.44
2023-02-12T02:45:54.290Z,102262.38
2023-02-12T02:48:25.525Z,102251.63
2023-02-12T02:50:57.186Z,102251.94
2023-02-12T02:53:27.970Z,102249.78
2023-02-12T02:55:58.507Z,102257.97
2023-02-12T02:58:28.447Z,102249.91
2023-02-12T03:01:01.987Z,102258.75
2023-02-12T03:03:33.407Z,102264.97
2023-02-12T03:06:05.393Z,102255.06
2023-02-12T03:08:37.552Z,102249.47
2023-02-12T03:11:09.292Z,102255.53
2023-02-12T03:13:39.500Z,102259.16
2023-02-12T03:16:13.443Z,102251.41
2023-02-12T03:18:44.193Z,102249.69
2023-02-12T03:21:14.100Z,102259.59
2023-02-12T03:23:45.259Z,102260.25
2023-02-12T03:26:15.649Z,102254.97
2023-02-12T03:28:43.932Z,102249.59
2023-02-12T03:31:17.257Z,102248.63
2023-02-12T03:33:50.022Z,102244.41
2023-02-12T03:36:24.558Z,102239.91
2023-02-12T03:38:54.664Z,102246.03
2023-02-12T03:41:26.379Z,102239.91
2023-02-12T03:43:56.623Z,102229.06
2023-02-12T03:46:29.501Z,102232.59
2023-02-12T03:49:00.745Z,102231.19
2023-02-12T03:51:31.459Z,102233.75
2023-02-12T03:53:59.669Z,102228.59
2023-02-12T03:56:30.051Z,102224.94
2023-02-12T03:58:58.823Z,102232.03
2023-02-12T04:01:29.107Z,102219.84
2023-02-12T04:03:58.079Z,102216.09
2023-02-12T04:06:27.889Z,102220.75
2023-02-12T04:08:58.816Z,102221.47
2023-02-12T04:11:30.278Z,102216.97
2023-02-12T04:14:04.965Z,102217.84
2023-02-12T04:16:38.093Z,102211.41
2023-02-12T04:19:07.093Z,102212.13
2023-02-12T04:21:44.242Z,102217.41
2023-02-12T04:24:17.361Z,102213.97
2023-02-12T04:26:49.974Z,102213.03
2023-02-12T04:29:23.299Z,102212.25
2023-02-12T04:31:56.998Z,102206.88
2023-02-12T04:34:29.196Z,102209.75
2023-02-12T04:36:59.484Z,102210.50
2023-02-12T04:39:28.798Z,102206.88
2023-02-12T04:41:59.407Z,102199.97
2023-02-12T04:44:28.404Z,102198.06
2023-02-12T04:46:57.926Z,102196.09
2023-02-12T04:49:26.245Z,102198.06
2023-02-12T04:51:54.438Z,102199.97
2023-02-12T04:54:23.538Z,102196.22
2023-02-12T04:56:52.213Z,102196.09
2023-02-12T04:59:20.334Z,102193.31
2023-02-12T05:01:48.429Z,102196.00
2023-02-12T05:04:18.528Z,102198.91
2023-02-12T05:06:47.085Z,102199.75
2023-02-12T05:09:16.387Z,102206.88
2023-02-12T05:11:44.616Z,102203.00
2023-02-12T05:14:13.152Z,102204.06
2023-02-12T05:16:41.297Z,102197.84
2023-02-12T05:19:10.248Z,102202.06
2023-02-12T05:21:40.179Z,102199.34
2023-02-12T05:24:08.434Z,102198.59
2023-02-12T05:26:36.654Z,102203.22
2023-02-12T05:29:05.297Z,102193.84
2023-02-12T05:31:33.695Z,102192.56
2023-02-12T05:34:01.962Z,102194.84
2023-02-12T05:36:30.277Z,102192.34
2023-02-12T05:39:01.073Z,102186.13
2023-02-12T05:41:29.216Z,102189.44
2023-02-12T05:43:57.317Z,102183.00
2023-02-12T05:46:25.487Z,102183.75
2023-02-12T05:48:53.707Z,102175.69
2023-02-12T05:51:23.699Z,102173.75
2023-02-12T05:53:52.373Z,102176.44
2023-02-12T05:56:22.828Z,102177.97
2023-02-12T05:58:54.166Z,102174.50
2023-02-12T06:01:23.765Z,102169.22
2023-02-12T06:03:51.905Z,102168.38
2023-02-12T06:06:20.269Z,102162.78
2023-02-12T06:08:48.859Z,102169.91
2023-02-12T06:11:17.600Z,102162.56
2023-02-12T06:13:47.224Z,102160.84
2023-02-12T06:16:19.884Z,102160.84
2023-02-12T06:18:48.220Z,102156.34
2023-02-12T06:21:16.544Z,102146.44
2023-02-12T06:23:45.028Z,102150.06
2023-02-12T06:26:13.177Z,102152.59
2023-02-12T06:28:41.365Z,102150.06
2023-02-12T06:31:19.108Z,102153.53
2023-02-12T06:33:47.480Z,102154.16
2023-02-12T06:36:15.650Z,102146.00
2023-02-12T06:38:43.974Z,102141.72
2023-02-12T06:41:12.509Z,102147.94
2023-02-12T06:43:40.795Z,102143.63
2023-02-12T06:46:09.404Z,102138.03
2023-02-12T06:48:38.884Z,102148.50
2023-02-12T06:51:08.367Z,102145.47
2023-02-12T06:53:36.542Z,102147.50
2023-02-12T06:56:05.094Z,102142.34
2023-02-12T06:58:33.381Z,102132.75
2023-02-12T07:01:10.926Z,102127.94
2023-02-12T07:03:40.613Z,102132.00
2023-02-12T07:06:09.291Z,102130.50
2023-02-12T07:08:37.428Z,102126.75
2023-02-12T07:11:05.998Z,102114.38
2023-02-12T07:13:35.504Z,102124.69
2023-02-12T07:16:07.817Z,102115.88
2023-02-12T07:18:36.758Z,102119.75
2023-02-12T07:21:07.241Z,102119.75
2023-02-12T07:23:35.735Z,102121.25
2023-02-12T07:26:04.953Z,102115.22
2023-02-12T07:28:34.651Z,102130.50
2023-02-12T07:31:07.327Z,102125.88
2023-02-12T07:33:35.959Z,102125.75
2023-02-12T07:36:04.323Z,102124.69
2023-02-12T07:38:36.449Z,102124.91
2023-02-12T07:41:10.596Z,102129.22
2023-02-12T07:43:39.420Z,102123.16
2023-02-12T07:46:12.325Z,102122.00
2023-02-12T07:48:40.600Z,102125.47
2023-02-12T07:51:09.714Z,102127.94
2023-02-12T07:53:40.080Z,102131.78
2023-02-12T07:56:09.299Z,102132.47
2023-02-12T07:58:37.587Z,102135.22
2023-02-12T08:01:19.095Z,102143.84
2023-02-12T08:03:47.967Z,102141.16
2023-02-12T08:06:17.470Z,102150.84
2023-02-12T08:08:47.188Z,102144.63
2023-02-12T08:11:16.012Z,102146.66
2023-02-12T08:13:44.248Z,102145.38
2023-02-12T08:16:14.053Z,102149.00
2023-02-12T08:18:42.367Z,102147.09
2023-02-12T08:21:11.620Z,102143.63
2023-02-12T08:23:40.129Z,102140.72
2023-02-12T08:26:11.028Z,102140.19
2023-02-12T08:28:39.999Z,102135.66
2023-02-12T08:31:09.356Z,102150.09
2023-02-12T08:33:37.959Z,102141.06
2023-02-12T08:36:07.222Z,102142.78
2023-02-12T08:38:35.361Z,102147.09
2023-02-12T08:41:04.729Z,102144.50
2023-02-12T08:43:34.561Z,102143.41
2023-02-12T08:46:03.201Z,102136.09
2023-02-12T08:48:31.313Z,102140.81
2023-02-12T08:51:04.576Z,102152.16
2023-02-12T08:53:33.070Z,102151.81
2023-02-12T08:56:01.542Z,102156.97
2023-02-12T08:58:29.673Z,102155.91
2023-02-12T09:00:59.314Z,102152.03
2023-02-12T09:03:27.566Z,102149.88
2023-02-12T09:05:56.163Z,102156.09
2023-02-12T09:08:24.614Z,102153.31
2023-02-12T09:10:52.652Z,102153.06
2023-02-12T09:13:20.831Z,102155.34
2023-02-12T09:15:48.837Z,102158.13
2023-02-12T09:18:20.554Z,102150.03
2023-02-12T09:20:48.589Z,102155.88
2023-02-12T09:23:16.652Z,102150.81
2023-02-12T09:25:45.775Z,102151.44
2023-02-12T09:28:14.383Z,102152.81
2023-02-12T09:30:42.629Z,102148.31
2023-02-12T09:33:12.379Z,102143.06
2023-02-12T09:35:42.097Z,102137.09
2023-02-12T09:38:10.814Z,102132.13
2023-02-12T09:40:44.073Z,102130.81
2023-02-12T09:43:15.626Z,102132.75
2023-02-12T09:45:46.296Z,102120.88
2023-02-12T09:48:24.262Z,102121.72
2023-02-12T09:50:55.030Z,102112.69
2023-02-12T09:53:24.786Z,102104.94
2023-02-12T09:55:53.242Z,102093.94
2023-02-12T09:58:25.857Z,102094.59
2023-02-12T10:00:53.982Z,102092.84
2023-02-12T10:03:23.434Z,102096.06
2023-02-12T10:05:55.647Z,102098.25
2023-02-12T10:08:36.722Z,102094.25
2023-02-12T10:11:15.307Z,102094.97
2023-02-12T10:13:49.208Z,102087.00
2023-02-12T10:16:27.386Z,102086.88
2023-02-12T10:19:02.731Z,102087.25
2023-02-12T10:21:41.717Z,102081.22
2023-02-12T10:24:20.662Z,102083.50
2023-02-12T10:26:49.788Z,102075.66
2023-02-12T10:29:19.494Z,102079.50
2023-02-12T10:31:50.263Z,102075.47
2023-02-12T10:34:20.206Z,102067.72
2023-02-12T10:36:52.803Z,102069.97
2023-02-12T10:39:23.997Z,102057.22
2023-02-12T10:41:57.054Z,102052.59
2023-02-12T10:44:25.308Z,102062.72
2023-02-12T10:46:53.830Z,102056.84
2023-02-12T10:49:22.364Z,102060.06
2023-02-12T10:52:00.033Z,102054.19
2023-02-12T10:54:39.099Z,102049.94
2023-02-12T10:57:11.134Z,102056.34
2023-02-12T10:59:39.947Z,102060.25
2023-02-12T11:02:20.038Z,102051.75
2023-02-12T11:04:48.353Z,102050.06
2023-02-12T11:07:18.258Z,102050.44
2023-02-12T11:09:47.647Z,102044.75
2023-02-12T11:12:19.335Z,102050.91
2023-02-12T11:14:49.958Z,102035.25
2023-02-12T11:17:26.686Z,102045.81
2023-02-12T11:20:13.509Z,102040.41
2023-02-12T11:22:50.399Z,102047.31
2023-02-12T11:25:19.169Z,102048.03
2023-02-12T11:27:59.916Z,102042.63
2023-02-12T11:30:28.649Z,102038.56
2023-02-12T11:33:06.242Z,102045.69
2023-02-12T11:35:36.426Z,102045.69
2023-02-12T11:38:05.912Z,102042.75
2023-02-12T11:40:34.825Z,102037.97
2023-02-12T11:43:06.875Z,102038.69
2023-02-12T11:45:36.130Z,102023.25
2023-02-12T11:48:04.501Z,102022.66
2023-02-12T11:50:34.268Z,102022.66
2023-02-12T11:53:07.052Z,102023.91
2023-02-12T11:55:37.668Z,102023.25
2023-02-12T11:58:07.230Z,102018.25
2023-02-12T12:00:39.269Z,102014.59
2023-02-12T12:03:14.811Z,102022.19
2023-02-12T12:05:46.092Z,102008.59
2023-02-12T12:08:17.981Z,101998.16
2023-02-12T12:10:50.901Z,101993.88
2023-02-12T12:13:25.677Z,101990.91
2023-02-12T12:16:18.961Z,101984.78
2023-02-12T12:19:06.041Z,101979.16
2023-02-12T12:21:39.304Z,101969.59
2023-02-12T12:24:11.197Z,101967.13
2023-02-12T12:26:42.047Z,101971.19
2023-02-12T12:29:16.722Z,101976.72
2023-02-12T12:31:47.296Z,101971.78
2023-02-12T12:34:17.326Z,101959.75
2023-02-12T12:37:03.468Z,101967.13
2023-02-12T12:39:36.405Z,101959.03
2023-02-12T12:42:19.604Z,101957.06
2023-02-12T12:44:56.505Z,101955.34
2023-02-12T12:47:29.721Z,101957.06
2023-02-12T12:50:01.693Z,101948.50
2023-02-12T12:52:40.289Z,101952.63
2023-02-12T12:55:24.134Z,101949.66
2023-02-12T12:58:01.100Z,101928.44
2023-02-12T13:01:03.264Z,101937.56
2023-02-12T13:03:43.316Z,101930.44
2023-02-12T13:06:30.476Z,101930.81
2023-02-12T13:09:12.151Z,101938.31
2023-02-12T13:11:46.111Z,101933.75
2023-02-12T13:14:23.996Z,101930.84
2023-02-12T13:16:56.369Z,101935.34
2023-02-12T13:19:31.644Z,101935.97
2023-02-12T13:22:04.534Z,101928.97
2023-02-12T13:24:36.083Z,101933.03
2023-02-12T13:27:08.074Z,101935.97
2023-02-12T13:29:39.511Z,101941.13
2023-02-12T13:32:13.371Z,101927.38
2023-02-12T13:34:45.266Z,101924.91
2023-02-12T13:37:16.482Z,101918.75
2023-02-12T13:39:48.652Z,101922.09
2023-02-12T13:42:27.652Z,101918.28
2023-02-12T13:45:00.362Z,101924.06
2023-02-12T13:47:32.774Z,101921.34
2023-02-12T13:50:11.254Z,101913.34
2023-02-12T13:52:43.700Z,101920.97
2023-02-12T13:55:20.317Z,101915.84
2023-02-12T13:58:11.628Z,101912.78
2023-02-12T14:01:00.748Z,101918.75
2023-02-12T14:03:32.064Z,101913.63
2023-02-12T14:06:16.752Z,101915.72
2023-02-12T14:08:47.888Z,101915.84
2023-02-12T14:11:19.994Z,101920.47
2023-02-12T14:13:51.934Z,101919.41
2023-02-12T14:16:22.395Z,101920.50
2023-02-12T14:18:50.693Z,101922.75
2023-02-12T14:21:47.107Z,101923.97
2023-02-12T14:24:33.973Z,101921.50
2023-02-12T14:27:05.525Z,101920.16
2023-02-12T14:29:34.536Z,101918.44
2023-02-12T14:32:02.755Z,101915.13
2023-02-12T14:34:55.287Z,101918.56
2023-02-12T14:37:38.491Z,101905.81
2023-02-12T14:40:25.638Z,101909.00
2023-02-12T14:43:00.579Z,101908.50
2023-02-12T14:45:29.836Z,101901.88
2023-02-12T14:47:58.239Z,101896.75
2023-02-12T14:50:31.612Z,101895.28
2023-02-12T14:53:01.621Z,101891.97
2023-02-12T14:55:33.906Z,101882.75
2023-02-12T14:58:07.736Z,101877.63
2023-02-12T15:00:37.575Z,101877.63
2023-02-12T15:03:18.463Z,101883.88
2023-02-12T15:05:53.153Z,101887.81
2023-02-12T15:08:27.691Z,101883.88
2023-02-12T15:10:59.278Z,101890.13
2023-02-12T15:13:31.380Z,101894.81
2023-02-12T15:16:04.622Z,101891.34
2023-02-12T15:18:46.442Z,101888.16
2023-02-12T15:21:22.027Z,101892.53
2023-02-12T15:23:59.915Z,101877.59
2023-02-12T15:26:29.786Z,101885.66
2023-02-12T15:29:00.961Z,101882.25
2023-02-12T15:31:32.226Z,101882.25
2023-02-12T15:34:02.113Z,101877.34
2023-02-12T15:36:33.136Z,101872.44
2023-02-12T15:39:04.308Z,101870.75
2023-02-12T15:41:44.623Z,101869.03
2023-02-12T15:44:38.672Z,101861.53
2023-02-12T15:47:14.713Z,101868.06
2023-02-12T15:49:44.711Z,101857.13
2023-02-12T15:52:21.575Z,101861.19
2023-02-12T15:54:50.931Z,101852.84
2023-02-12T15:57:23.449Z,101852.97
2023-02-12T15:59:53.673Z,101853.09
2023-02-12T16:02:22.697Z,101854.78
2023-02-12T16:04:51.831Z,101855.16
2023-02-12T16:07:22.864Z,101863.38
2023-02-12T16:09:52.445Z,101867.03
2023-02-12T16:12:23.112Z,101866.31
2023-02-12T16:14:53.414Z,101866.56
2023-02-12T16:17:25.721Z,101865.69
2023-02-12T16:20:00.102Z,101860.56
2023-02-12T16:22:32.978Z,101852.47
2023-02-12T16:25:01.661Z,101854.31
2023-02-12T16:27:31.059Z,101857.59
2023-02-12T16:30:02.745Z,101853.34
2023-02-12T16:32:36.148Z,101855.91
2023-02-12T16:35:07.738Z,101852.84
2023-02-12T16:37:46.174Z,101847.72
2023-02-12T16:40:22.671Z,101851.38
2023-02-12T16:43:02.018Z,101842.06
2023-02-12T16:45:38.370Z,101841.09
2023-02-12T16:48:25.282Z,101849.75
2023-02-12T16:50:57.189Z,101844.38
2023-02-12T16:53:37.575Z,101855.53
2023-02-12T16:56:07.133Z,101855.28
2023-02-12T16:58:35.172Z,101841.56
2023-02-12T17:01:04.708Z,101848.66
2023-02-12T17:03:33.414Z,101843.78
2023-02-12T17:06:03.211Z,101839.47
2023-02-12T17:08:31.262Z,101839.72
2023-02-12T17:11:03.236Z,101835.91
2023-02-12T17:13:32.356Z,101834.56
2023-02-12T17:16:01.843Z,101840.16
2023-02-12T17:18:33.005Z,101847.91
2023-02-12T17:21:06.526Z,101855.22
2023-02-12T17:23:40.464Z,101857.19
2023-02-12T17:26:12.480Z,101857.19
2023-02-12T17:28:43.610Z,101840.63
2023-02-12T17:31:13.202Z,101850.81
2023-02-12T17:33:42.203Z,101848.72
2023-02-12T17:36:14.391Z,101843.06
2023-02-12T17:38:42.677Z,101847.59
2023-02-12T17:41:12.661Z,101844.16
2023-02-12T17:43:40.732Z,101846.97
2023-02-12T17:46:13.006Z,101842.53
2023-02-12T17:48:41.626Z,101845.09
2023-02-12T17:51:12.533Z,101838.25
2023-02-12T17:53:40.747Z,101833.47
2023-02-12T17:56:15.513Z,101837.50
2023-02-12T17:58:44.948Z,101833.56
2023-02-12T18:01:13.842Z,101825.38
2023-02-12T18:03:42.089Z,101834.25
2023-02-12T18:06:18.112Z,101834.72
2023-02-12T18:08:50.422Z,101842.03
2023-02-12T18:11:20.511Z,101840.66
2023-02-12T18:13:48.646Z,101839.06
2023-02-12T18:16:17.019Z,101841.00
2023-02-12T18:18:45.962Z,101844.44
2023-02-12T18:21:17.134Z,101840.69
2023-02-12T18:23:45.334Z,101844.03
2023-02-12T18:26:14.432Z,101850.72
2023-02-12T18:28:42.773Z,101842.66
2023-02-12T18:31:10.994Z,101849.78
2023-02-12T18:33:39.624Z,101850.97
2023-02-12T18:36:09.185Z,101847.09
2023-02-12T18:38:39.678Z,101856.41
2023-02-12T18:41:08.177Z,101852.72
2023-02-12T18:43:36.689Z,101850.03
2023-02-12T18:46:08.251Z,101851.03
2023-02-12T18:48:36.648Z,101845.78
2023-02-12T18:51:05.089Z,101839.28
2023-02-12T18:53:33.252Z,101844.16
2023-02-12T18:56:04.664Z,101844.72
2023-02-12T18:58:33.014Z,101842.59
2023-02-12T19:01:01.614Z,101839.44
2023-02-12T19:03:30.093Z,101833.78
2023-02-12T19:06:04.308Z,101841.97
2023-02-12T19:08:32.727Z,101842.28
2023-02-12T19:11:00.864Z,101844.13
2023-02-12T19:13:30.383Z,101837.91
2023-02-12T19:15:58.997Z,101844.88
2023-02-12T19:18:27.174Z,101841.56
2023-02-12T19:20:55.654Z,101827.59
2023-02-12T19:23:25.328Z,101829.00
2023-02-12T19:25:54.292Z,101819.22
2023-02-12T19:28:22.842Z,101827.38
2023-02-12T19:30:52.520Z,101823.63
2023-02-12T19:33:20.718Z,101831.81
2023-02-12T19:35:50.307Z,101830.84
2023-02-12T19:38:20.214Z,101826.97
2023-02-12T19:40:48.710Z,101820.59
2023-02-12T19:43:16.769Z,101831.25
2023-02-12T19:45:44.868Z,101830.38
2023-02-12T19:48:14.630Z,101832.72
2023-02-12T19:50:46.179Z,101828.47
2023-02-12T19:53:14.327Z,101822.19
2023-02-12T19:55:42.429Z,101820.28
2023-02-12T19:58:10.584Z,101815.88
2023-02-12T20:00:38.808Z,101815.63
2023-02-12T20:03:06.967Z,101815.53
2023-02-12T20:05:42.232Z,101821.53
2023-02-12T20:08:10.454Z,101810.78
2023-02-12T20:10:39.828Z,101815.09
2023-02-12T20:13:08.464Z,101808.84
2023-02-12T20:15:37.806Z,101813.13
2023-02-12T20:18:08.333Z,101813.84
2023-02-12T20:20:40.859Z,101804.66
2023-02-12T20:23:09.004Z,101815.94
2023-02-12T20:25:43.099Z,101808.84
2023-02-12T20:28:12.430Z,101789.88
2023-02-12T20:30:41.557Z,101793.47
2023-02-12T20:33:11.332Z,101796.03
2023-02-12T20:35:42.709Z,101782.81
2023-02-12T20:38:10.831Z,101776.56
2023-02-12T20:40:40.122Z,101780.97
2023-02-12T20:43:09.816Z,101786.13
2023-02-12T20:45:38.131Z,101787.09
2023-02-12T20:48:06.825Z,101783.66
2023-02-12T20:50:34.885Z,101780.97
2023-02-12T20:53:07.264Z,101778.41
2023-02-12T20:55:35.474Z,101772.63
2023-02-12T20:58:05.629Z,101780.69
2023-02-12T21:00:34.857Z,101777.03
2023-02-12T21:03:04.680Z,101774.56
2023-02-12T21:05:34.293Z,101776.06
2023-02-12T21:08:03.445Z,101776.16
2023-02-12T21:10:34.068Z,101772.31
2023-02-12T21:13:03.709Z,101774.56
2023-02-12T21:15:31.897Z,101765.38
2023-02-12T21:18:02.155Z,101757.00
2023-02-12T21:20:31.211Z,101756.13
2023-02-12T21:23:02.213Z,101764.19
2023-02-12T21:25:33.009Z,101768.97
2023-02-12T21:28:01.203Z,101771.66
2023-02-12T21:30:29.379Z,101768.84
2023-02-12T21:32:58.014Z,101758.94
2023-02-12T21:35:26.180Z,101769.47
2023-02-12T21:37:55.837Z,101764.06
2023-02-12T21:40:24.476Z,101755.28
2023-02-12T21:42:56.959Z,101761.31
2023-02-12T21:45:27.115Z,101760.41
2023-02-12T21:47:56.097Z,101767.28
2023-02-12T21:50:25.078Z,101759.56
2023-02-12T21:52:53.273Z,101760.41
2023-02-12T21:55:21.370Z,101760.66
2023-02-12T21:57:50.423Z,101761.63
2023-02-12T22:00:21.329Z,101761.19
2023-02-12T22:02:50.039Z,101758.69
2023-02-12T22:05:19.723Z,101759.56
2023-02-12T22:07:49.716Z,101755.81
2023-02-12T22:10:19.935Z,101751.63
2023-02-12T22:12:49.059Z,101754.56
2023-02-12T22:15:17.233Z,101763.34
2023-02-12T22:17:50.282Z,101756.41
2023-02-12T22:20:20.018Z,101754.56
2023-02-12T22:22:48.057Z,101756.53
2023-02-12T22:25:18.046Z,101748.34
2023-02-12T22:27:49.883Z,101743.81
2023-02-12T22:30:18.620Z,101750.44
2023-02-12T22:32:49.409Z,101742.13
2023-02-12T22:35:17.682Z,101742.72
2023-02-12T22:37:47.775Z,101734.78
2023-02-12T22:40:16.830Z,101737.13
2023-02-12T22:42:44.850Z,101730.03
2023-02-12T22:45:14.599Z,101732.84
2023-02-12T22:47:42.805Z,101733.94
2023-02-12T22:50:13.603Z,101718.19
2023-02-12T22:52:42.772Z,101709.63
2023-02-12T22:55:15.924Z,101706.81
2023-02-12T22:57:45.931Z,101713.66
2023-02-12T23:00:14.557Z,101705.47
2023-02-12T23:02:42.640Z,101701.59
2023-02-12T23:05:12.330Z,101699.84
2023-02-12T23:07:40.412Z,101694.22
2023-02-12T23:10:09.420Z,101696.94
2023-02-12T23:12:37.609Z,101701.47
2023-02-12T23:15:05.966Z,101702.31
2023-02-12T23:17:34.122Z,101697.03
2023-02-12T23:20:02.305Z,101697.44
2023-02-12T23:22:31.890Z,101694.88
2023-02-12T23:24:59.963Z,101675.41
2023-02-12T23:27:28.283Z,101680.66
2023-02-12T23:29:56.368Z,101693.78
2023-02-12T23:32:24.527Z,101685.19
2023-02-12T23:34:52.537Z,101679.81
2023-02-12T23:37:20.669Z,101678.72
2023-02-12T23:39:50.378Z,101683.22
2023-02-12T23:42:19.228Z,101690.56
2023-02-12T23:44:47.270Z,101684.47
2023-02-12T23:47:15.435Z,101689.50
2023-02-12T23:49:43.535Z,101695.97
2023-02-12T23:52:11.657Z,101688.75
2023-02-12T23:54:39.799Z,101691.53
2023-02-12T23:57:09.461Z,101680.91
2023-02-12T23:59:37.683Z,101688.97
